Time;durP1;ratioP1;P1;durP2;ratioP2;P2;SDS_P1;SDS_P2;PMS_P1;PMS_P2;Temp;Humidity;BMP_temperature;BMP_pressure;BME280_temperature;BME280_humidity;BME280_pressure;Samples;Min_cycle;Max_cycle;Signal;HPM_P1;HPM_P2
2022/05/28 00:01:06;;;;;;;3.33;1.27;;;;;;;;;;5063697;28;20051;-68
2022/05/28 00:03:32;;;;;;;1.58;1.02;;;;;;;;;;5080986;28;20024;-70
2022/05/28 00:05:57;;;;;;;1.02;0.93;;;;;;;;;;5081143;28;20040;-69
2022/05/28 00:08:24;;;;;;;2.25;1.15;;;;;;;;;;5081192;28;20038;-69
2022/05/28 00:10:51;;;;;;;4.85;1.30;;;;;;;;;;5081214;28;20048;-70
2022/05/28 00:13:16;;;;;;;1.65;1.02;;;;;;;;;;5081533;28;20050;-70
2022/05/28 00:15:42;;;;;;;1.92;1.27;;;;;;;;;;5080557;28;20040;-68
2022/05/28 00:18:08;;;;;;;1.00;1.00;;;;;;;;;;5080526;28;20062;-70
2022/05/28 00:20:34;;;;;;;1.52;1.08;;;;;;;;;;5081384;28;20032;-69
2022/05/28 00:22:59;;;;;;;1.50;1.10;;;;;;;;;;5081619;28;20396;-68
2022/05/28 00:25:25;;;;;;;1.85;1.20;;;;;;;;;;5080440;28;20037;-69
2022/05/28 00:27:51;;;;;;;1.13;1.13;;;;;;;;;;5080557;28;20092;-69
2022/05/28 00:30:17;;;;;;;1.33;0.95;;;;;;;;;;5081173;28;20168;-69
2022/05/28 00:32:43;;;;;;;1.35;1.20;;;;;;;;;;5081028;28;20043;-68
2022/05/28 00:35:17;;;;;;;1.40;1.30;;;;;;;;;;5080926;28;20036;-69
2022/05/28 00:37:44;;;;;;;2.38;1.17;;;;;;;;;;5075917;28;20529;-70
2022/05/28 00:40:15;;;;;;;3.67;1.23;;;;;;;;;;5080814;28;20093;-68
2022/05/28 00:42:41;;;;;;;3.07;1.20;;;;;;;;;;5081144;28;20085;-69
2022/05/28 00:45:07;;;;;;;1.05;0.95;;;;;;;;;;5081334;28;20434;-68
2022/05/28 00:47:32;;;;;;;1.55;1.02;;;;;;;;;;5079273;28;20028;-69
2022/05/28 00:49:58;;;;;;;1.40;1.30;;;;;;;;;;5081173;28;20046;-71
2022/05/28 00:52:26;;;;;;;1.85;1.30;;;;;;;;;;5080972;28;20043;-68
2022/05/28 00:54:52;;;;;;;1.00;1.00;;;;;;;;;;5080682;28;20399;-68
2022/05/28 00:57:20;;;;;;;1.10;1.00;;;;;;;;;;5080083;28;20044;-68
2022/05/28 00:59:45;;;;;;;1.30;1.20;;;;;;;;;;5080064;28;20039;-68
2022/05/28 01:02:30;;;;;;;1.05;1.02;;;;;;;;;;5080692;28;20036;-71
2022/05/28 01:05:01;;;;;;;3.75;1.20;;;;;;;;;;5080693;28;20043;-68
2022/05/28 01:08:10;;;;;;;4.65;1.38;;;;;;;;;;5077714;28;20043;-71
2022/05/28 01:10:52;;;;;;;2.00;1.13;;;;;;;;;;5065741;28;20066;-68
2022/05/28 01:13:23;;;;;;;2.38;1.40;;;;;;;;;;5079739;28;20105;-68
2022/05/28 01:16:04;;;;;;;1.30;1.20;;;;;;;;;;5080276;28;20040;-70
2022/05/28 01:18:45;;;;;;;1.40;1.20;;;;;;;;;;5080121;28;20047;-70
2022/05/28 01:21:36;;;;;;;1.38;1.27;;;;;;;;;;5079832;28;20074;-70
2022/05/28 01:24:09;;;;;;;1.40;1.30;;;;;;;;;;5080416;28;20024;-71
2022/05/28 01:26:53;;;;;;;1.40;1.30;;;;;;;;;;5080603;28;20097;-71
2022/05/28 01:29:21;;;;;;;1.42;1.33;;;;;;;;;;5080806;28;20040;-72
2022/05/28 01:31:47;;;;;;;3.40;1.77;;;;;;;;;;5079484;28;20040;-72
2022/05/28 01:34:16;;;;;;;1.48;1.30;;;;;;;;;;5080102;28;20073;-72
2022/05/28 01:36:42;;;;;;;2.67;1.50;;;;;;;;;;5080217;28;20524;-73
2022/05/28 01:39:08;;;;;;;2.17;1.98;;;;;;;;;;5080011;28;20047;-72
2022/05/28 01:41:36;;;;;;;1.98;1.60;;;;;;;;;;5080413;28;20051;-71
2022/05/28 01:44:02;;;;;;;1.40;1.30;;;;;;;;;;5079540;28;20039;-69
2022/05/28 01:46:29;;;;;;;1.50;1.40;;;;;;;;;;5078624;28;20036;-68
2022/05/28 01:48:55;;;;;;;2.92;1.33;;;;;;;;;;5081017;28;20040;-68
2022/05/28 01:51:29;;;;;;;1.48;1.38;;;;;;;;;;5084236;28;20126;-69
2022/05/28 01:54:09;;;;;;;1.50;1.40;;;;;;;;;;5083309;28;20048;-70
2022/05/28 01:56:37;;;;;;;1.88;1.17;;;;;;;;;;5084109;28;20032;-68
2022/05/28 01:59:02;;;;;;;1.50;1.40;;;;;;;;;;5083440;28;20036;-68
2022/05/28 02:01:28;;;;;;;2.47;1.20;;;;;;;;;;5084088;28;20035;-69
2022/05/28 02:03:58;;;;;;;1.80;1.30;;;;;;;;;;5084107;28;20556;-69
2022/05/28 02:06:25;;;;;;;1.88;1.48;;;;;;;;;;5082678;28;21131;-70
2022/05/28 02:08:52;;;;;;;1.45;1.35;;;;;;;;;;5083462;28;20040;-68
2022/05/28 02:11:21;;;;;;;3.78;1.60;;;;;;;;;;5083694;28;20397;-71
2022/05/28 02:14:16;;;;;;;1.20;1.10;;;;;;;;;;5083786;28;20047;-70
2022/05/28 02:16:49;;;;;;;1.40;1.30;;;;;;;;;;5071414;28;20075;-69
2022/05/28 02:19:32;;;;;;;2.35;1.45;;;;;;;;;;5083068;28;20034;-69
2022/05/28 02:22:22;;;;;;;3.00;1.35;;;;;;;;;;5083778;28;20044;-68
2022/05/28 02:24:56;;;;;;;1.98;1.20;;;;;;;;;;5058965;28;20036;-68
2022/05/28 02:27:24;;;;;;;1.45;1.35;;;;;;;;;;5081974;28;20128;-69
2022/05/28 02:29:51;;;;;;;2.15;1.35;;;;;;;;;;5083464;28;20059;-68
2022/05/28 02:32:23;;;;;;;2.15;1.50;;;;;;;;;;5083644;28;20063;-68
2022/05/28 02:34:50;;;;;;;1.52;1.42;;;;;;;;;;5083322;28;20918;-70
2022/05/28 02:37:21;;;;;;;2.55;1.50;;;;;;;;;;5081990;28;20043;-67
2022/05/28 02:39:48;;;;;;;1.40;1.30;;;;;;;;;;5083573;28;20040;-67
2022/05/28 02:42:13;;;;;;;2.63;1.40;;;;;;;;;;5083164;28;20065;-69
2022/05/28 02:44:38;;;;;;;2.45;1.70;;;;;;;;;;5083290;28;20040;-69
2022/05/28 02:47:05;;;;;;;1.52;1.40;;;;;;;;;;5082697;28;20043;-69
2022/05/28 02:49:31;;;;;;;1.65;1.48;;;;;;;;;;5082180;28;20694;-68
2022/05/28 02:52:01;;;;;;;2.05;1.52;;;;;;;;;;5083383;28;20127;-68
2022/05/28 02:54:27;;;;;;;2.10;1.70;;;;;;;;;;5082521;28;20040;-68
2022/05/28 02:56:52;;;;;;;3.05;1.70;;;;;;;;;;5083132;28;20038;-70
2022/05/28 02:59:17;;;;;;;6.97;1.70;;;;;;;;;;5081700;28;20570;-70
2022/05/28 03:01:43;;;;;;;1.85;1.50;;;;;;;;;;5063675;28;20142;-72
2022/05/28 03:04:08;;;;;;;3.20;1.70;;;;;;;;;;5082759;28;20032;-70
2022/05/28 03:06:37;;;;;;;1.92;1.73;;;;;;;;;;5082676;28;20040;-70
2022/05/28 03:09:05;;;;;;;6.25;2.00;;;;;;;;;;5079787;28;20042;-68
2022/05/28 03:11:31;;;;;;;2.10;1.65;;;;;;;;;;5081479;28;20042;-71
2022/05/28 03:13:56;;;;;;;1.90;1.75;;;;;;;;;;5082835;28;20036;-69
2022/05/28 03:16:22;;;;;;;5.20;1.77;;;;;;;;;;5082471;28;20613;-68
2022/05/28 03:18:47;;;;;;;1.77;1.67;;;;;;;;;;5081957;28;20028;-69
2022/05/28 03:21:13;;;;;;;2.45;1.83;;;;;;;;;;5081972;28;20032;-70
2022/05/28 03:23:38;;;;;;;2.05;1.70;;;;;;;;;;5080004;28;20548;-69
2022/05/28 03:26:18;;;;;;;2.83;2.30;;;;;;;;;;5081708;28;20097;-69
2022/05/28 03:28:45;;;;;;;2.95;2.08;;;;;;;;;;5081933;28;20369;-69
2022/05/28 03:31:11;;;;;;;6.10;2.25;;;;;;;;;;5082376;28;20580;-67
2022/05/28 03:33:37;;;;;;;5.95;2.15;;;;;;;;;;5081047;28;20047;-70
2022/05/28 03:36:04;;;;;;;5.72;2.10;;;;;;;;;;5082135;28;20039;-69
2022/05/28 03:38:30;;;;;;;2.10;1.95;;;;;;;;;;5081704;28;20093;-69
2022/05/28 03:40:58;;;;;;;2.40;1.98;;;;;;;;;;5082388;28;21050;-70
2022/05/28 03:43:24;;;;;;;3.30;2.35;;;;;;;;;;5081513;28;20388;-69
2022/05/28 03:45:50;;;;;;;3.47;2.05;;;;;;;;;;5081253;28;20599;-70
2022/05/28 03:48:15;;;;;;;4.22;2.28;;;;;;;;;;5081640;28;20048;-70
2022/05/28 03:50:41;;;;;;;2.65;2.20;;;;;;;;;;5081839;28;20075;-68
2022/05/28 03:53:06;;;;;;;2.55;2.10;;;;;;;;;;5082136;28;20047;-70
2022/05/28 03:55:32;;;;;;;6.15;2.35;;;;;;;;;;5080795;28;20067;-68
2022/05/28 03:57:57;;;;;;;5.75;1.92;;;;;;;;;;5081371;28;20045;-69
2022/05/28 04:00:23;;;;;;;3.78;1.80;;;;;;;;;;5081725;28;20054;-69
2022/05/28 04:02:48;;;;;;;3.72;2.08;;;;;;;;;;5081768;28;20047;-69
2022/05/28 04:05:14;;;;;;;4.85;1.92;;;;;;;;;;5080746;28;20074;-69
2022/05/28 04:07:40;;;;;;;6.25;2.30;;;;;;;;;;5080861;28;20396;-72
2022/05/28 04:10:07;;;;;;;5.82;2.20;;;;;;;;;;5082013;28;20071;-69
2022/05/28 04:12:33;;;;;;;10.20;2.00;;;;;;;;;;5081272;28;20476;-70
2022/05/28 04:14:58;;;;;;;5.57;2.38;;;;;;;;;;5080895;28;20036;-70
2022/05/28 04:17:24;;;;;;;2.88;1.88;;;;;;;;;;5078560;28;20031;-71
2022/05/28 04:19:50;;;;;;;5.63;2.33;;;;;;;;;;5081424;28;20040;-71
2022/05/28 04:22:15;;;;;;;10.07;2.20;;;;;;;;;;5080673;28;20119;-69
2022/05/28 04:24:41;;;;;;;3.45;2.00;;;;;;;;;;5081318;28;20854;-70
2022/05/28 04:27:06;;;;;;;5.22;2.58;;;;;;;;;;5080928;28;20121;-70
2022/05/28 04:29:32;;;;;;;8.00;2.00;;;;;;;;;;5080645;28;20039;-71
2022/05/28 04:31:57;;;;;;;5.50;2.13;;;;;;;;;;5081240;28;20751;-68
2022/05/28 04:34:23;;;;;;;6.53;2.25;;;;;;;;;;5080821;28;20035;-72
2022/05/28 04:36:48;;;;;;;5.47;1.98;;;;;;;;;;5081283;28;20036;-71
2022/05/28 04:39:14;;;;;;;4.72;2.10;;;;;;;;;;5079688;28;20073;-68
2022/05/28 04:41:39;;;;;;;7.35;2.28;;;;;;;;;;5081241;28;20044;-68
2022/05/28 04:44:05;;;;;;;2.63;1.73;;;;;;;;;;5077655;28;20028;-69
2022/05/28 04:46:30;;;;;;;3.38;1.70;;;;;;;;;;5080816;28;20135;-70
2022/05/28 04:48:56;;;;;;;9.27;2.08;;;;;;;;;;5079332;28;20126;-69
2022/05/28 04:51:21;;;;;;;2.95;1.95;;;;;;;;;;5080355;28;20043;-71
2022/05/28 04:53:47;;;;;;;4.72;2.10;;;;;;;;;;5080706;28;20040;-68
2022/05/28 04:56:14;;;;;;;5.57;1.70;;;;;;;;;;5080876;28;20028;-70
2022/05/28 04:58:40;;;;;;;4.45;1.95;;;;;;;;;;5080719;28;20489;-69
2022/05/28 05:01:05;;;;;;;5.82;1.80;;;;;;;;;;5080122;28;20044;-70
2022/05/28 05:03:33;;;;;;;4.85;1.40;;;;;;;;;;5080948;28;20032;-69
2022/05/28 05:05:58;;;;;;;7.57;1.85;;;;;;;;;;5080766;28;20040;-69
2022/05/28 05:08:24;;;;;;;5.28;1.70;;;;;;;;;;5080884;28;20043;-70
2022/05/28 05:10:49;;;;;;;5.07;1.42;;;;;;;;;;5080966;28;20441;-71
2022/05/28 05:13:14;;;;;;;7.65;1.70;;;;;;;;;;5079685;28;20468;-69
2022/05/28 05:15:40;;;;;;;4.00;1.70;;;;;;;;;;5080302;28;20028;-71
2022/05/28 05:18:05;;;;;;;4.47;1.75;;;;;;;;;;5080612;28;20207;-70
2022/05/28 05:20:31;;;;;;;1.85;1.60;;;;;;;;;;5080608;28;20473;-69
2022/05/28 05:22:56;;;;;;;6.20;1.65;;;;;;;;;;5080070;28;20035;-70
2022/05/28 05:25:23;;;;;;;3.75;1.40;;;;;;;;;;5083637;28;20046;-71
2022/05/28 05:27:49;;;;;;;5.57;1.90;;;;;;;;;;5084321;28;20032;-70
2022/05/28 05:30:15;;;;;;;4.85;1.88;;;;;;;;;;5084846;28;20042;-70
2022/05/28 05:32:41;;;;;;;4.70;1.90;;;;;;;;;;5084884;28;20031;-70
2022/05/28 05:35:08;;;;;;;4.93;1.48;;;;;;;;;;5083963;28;20058;-69
2022/05/28 05:37:33;;;;;;;8.75;2.08;;;;;;;;;;5084047;28;20077;-69
2022/05/28 05:39:58;;;;;;;5.28;1.60;;;;;;;;;;5084899;28;20036;-68
2022/05/28 05:42:24;;;;;;;3.53;1.70;;;;;;;;;;5081271;28;20032;-68
2022/05/28 05:44:49;;;;;;;5.82;1.90;;;;;;;;;;5082051;28;20492;-68
2022/05/28 05:47:15;;;;;;;3.17;1.80;;;;;;;;;;5082166;28;20043;-68
2022/05/28 05:49:40;;;;;;;3.53;1.92;;;;;;;;;;5082554;28;20389;-68
2022/05/28 05:52:06;;;;;;;4.30;1.88;;;;;;;;;;5082303;28;20046;-68
2022/05/28 05:54:32;;;;;;;4.85;2.10;;;;;;;;;;5081426;28;20382;-68
2022/05/28 05:56:58;;;;;;;5.70;2.10;;;;;;;;;;5082218;28;20571;-68
2022/05/28 05:59:23;;;;;;;5.32;2.00;;;;;;;;;;5081988;28;20075;-68
2022/05/28 06:01:49;;;;;;;6.38;2.10;;;;;;;;;;5082352;28;20101;-68
2022/05/28 06:04:15;;;;;;;7.05;2.28;;;;;;;;;;5082594;28;20058;-68
2022/05/28 06:06:41;;;;;;;4.43;2.03;;;;;;;;;;5081930;28;20420;-68
2022/05/28 06:09:07;;;;;;;4.03;1.88;;;;;;;;;;5081370;28;20040;-66
2022/05/28 06:11:33;;;;;;;5.40;1.80;;;;;;;;;;5081839;28;20028;-66
2022/05/28 06:13:58;;;;;;;6.10;1.55;;;;;;;;;;5080788;28;20032;-66
2022/05/28 06:16:24;;;;;;;4.05;1.30;;;;;;;;;;5082560;28;20596;-66
2022/05/28 06:18:50;;;;;;;3.92;1.25;;;;;;;;;;5082233;28;20073;-66
2022/05/28 06:21:18;;;;;;;4.22;1.20;;;;;;;;;;5082341;28;20028;-66
2022/05/28 06:23:44;;;;;;;4.32;1.27;;;;;;;;;;5082666;28;20054;-67
2022/05/28 06:26:10;;;;;;;7.95;1.35;;;;;;;;;;5081077;28;20039;-69
2022/05/28 06:28:36;;;;;;;6.80;1.40;;;;;;;;;;5082305;28;20069;-68
2022/05/28 06:31:06;;;;;;;3.90;1.50;;;;;;;;;;5083812;28;20044;-68
2022/05/28 06:33:32;;;;;;;4.20;1.60;;;;;;;;;;5082515;28;20054;-68
2022/05/28 06:36:00;;;;;;;4.32;1.67;;;;;;;;;;5081635;28;20069;-68
2022/05/28 06:38:26;;;;;;;4.32;1.38;;;;;;;;;;5082618;28;20515;-68
2022/05/28 06:40:52;;;;;;;5.65;1.40;;;;;;;;;;5082248;28;20039;-68
2022/05/28 06:43:18;;;;;;;6.70;1.20;;;;;;;;;;5083287;28;20492;-67
2022/05/28 06:45:44;;;;;;;3.50;1.15;;;;;;;;;;5083781;28;20040;-68
2022/05/28 06:48:10;;;;;;;7.85;1.20;;;;;;;;;;5083502;28;20040;-68
2022/05/28 06:53:20;;;;;;;3.80;1.10;;;;;;;;;;5082771;28;20093;-68
2022/05/28 06:55:46;;;;;;;3.65;1.55;;;;;;;;;;5082739;28;20127;-68
2022/05/28 06:58:11;;;;;;;6.35;1.58;;;;;;;;;;5082496;28;20123;-68
2022/05/28 07:00:37;;;;;;;7.53;1.48;;;;;;;;;;5083161;28;20119;-67
2022/05/28 07:03:03;;;;;;;4.07;1.33;;;;;;;;;;5082384;28;20057;-68
2022/05/28 07:05:29;;;;;;;5.63;1.20;;;;;;;;;;5082570;28;20035;-68
2022/05/28 07:07:55;;;;;;;3.47;1.05;;;;;;;;;;5082485;28;20036;-68
2022/05/28 07:10:21;;;;;;;6.88;1.40;;;;;;;;;;5082574;28;20043;-67
2022/05/28 07:12:47;;;;;;;6.35;1.40;;;;;;;;;;5082426;28;20511;-67
2022/05/28 07:15:13;;;;;;;5.80;1.33;;;;;;;;;;5082109;28;20143;-66
2022/05/28 07:17:40;;;;;;;2.80;1.42;;;;;;;;;;5081418;28;21081;-66
2022/05/28 07:20:05;;;;;;;6.72;1.52;;;;;;;;;;5082922;28;20435;-66
2022/05/28 07:22:31;;;;;;;4.15;1.50;;;;;;;;;;5082455;28;20035;-66
2022/05/28 07:24:56;;;;;;;4.80;1.67;;;;;;;;;;5081726;28;20206;-66
2022/05/28 07:27:22;;;;;;;3.67;1.45;;;;;;;;;;5082174;28;20040;-66
2022/05/28 07:29:47;;;;;;;7.88;1.70;;;;;;;;;;5081407;28;20471;-66
2022/05/28 07:32:13;;;;;;;9.80;1.52;;;;;;;;;;5081770;28;20040;-66
2022/05/28 07:34:38;;;;;;;8.73;2.15;;;;;;;;;;5081524;28;20044;-66
2022/05/28 07:37:04;;;;;;;4.32;1.88;;;;;;;;;;5082096;28;20040;-66
2022/05/28 07:39:30;;;;;;;4.80;1.90;;;;;;;;;;5081806;28;20097;-66
2022/05/28 07:41:55;;;;;;;9.77;2.05;;;;;;;;;;5081205;28;20036;-66
2022/05/28 07:44:21;;;;;;;3.83;1.63;;;;;;;;;;5081245;28;20028;-66
2022/05/28 07:46:46;;;;;;;7.75;1.90;;;;;;;;;;5080003;28;20040;-67
2022/05/28 07:49:12;;;;;;;3.80;1.80;;;;;;;;;;5081652;28;20039;-66
2022/05/28 07:51:38;;;;;;;7.53;1.83;;;;;;;;;;5081649;28;20035;-69
2022/05/28 07:54:05;;;;;;;4.13;1.83;;;;;;;;;;5082244;28;20184;-66
2022/05/28 07:56:31;;;;;;;7.85;2.35;;;;;;;;;;5080407;28;20039;-66
2022/05/28 07:58:58;;;;;;;5.55;1.50;;;;;;;;;;5078423;28;20040;-66
2022/05/28 08:01:27;;;;;;;6.97;1.67;;;;;;;;;;5080215;28;20044;-66
2022/05/28 08:03:54;;;;;;;4.88;1.60;;;;;;;;;;5080353;28;20036;-66
2022/05/28 08:06:20;;;;;;;13.32;2.42;;;;;;;;;;5079479;28;20051;-66
2022/05/28 08:08:47;;;;;;;9.63;2.08;;;;;;;;;;5079067;28;20036;-66
2022/05/28 08:11:13;;;;;;;7.60;2.13;;;;;;;;;;5081289;28;20028;-67
2022/05/28 08:13:38;;;;;;;6.25;2.20;;;;;;;;;;5081143;28;20032;-69
2022/05/28 08:16:04;;;;;;;10.73;2.10;;;;;;;;;;5073097;28;20539;-69
2022/05/28 08:18:30;;;;;;;4.78;1.73;;;;;;;;;;5077109;28;20548;-68
2022/05/28 08:23:42;;;;;;;6.90;2.05;;;;;;;;;;5078738;28;20427;-68
2022/05/28 08:26:09;;;;;;;6.15;2.00;;;;;;;;;;5078196;28;20069;-68
2022/05/28 08:28:37;;;;;;;7.63;1.80;;;;;;;;;;5078637;28;20143;-68
2022/05/28 08:31:03;;;;;;;4.53;1.48;;;;;;;;;;5077122;28;20043;-68
2022/05/28 08:33:29;;;;;;;3.80;1.40;;;;;;;;;;5079421;28;20040;-68
2022/05/28 08:35:56;;;;;;;4.53;1.58;;;;;;;;;;5078323;28;20050;-67
2022/05/28 08:38:23;;;;;;;3.65;1.67;;;;;;;;;;5079253;28;20169;-67
2022/05/28 08:40:54;;;;;;;8.25;1.90;;;;;;;;;;5078117;28;20043;-67
2022/05/28 08:43:22;;;;;;;4.13;2.00;;;;;;;;;;5079954;28;20095;-68
2022/05/28 08:45:50;;;;;;;6.32;1.92;;;;;;;;;;5079036;28;20023;-68
2022/05/28 08:48:43;;;;;;;6.13;1.73;;;;;;;;;;5079349;28;20078;-67
2022/05/28 08:51:14;;;;;;;5.97;1.70;;;;;;;;;;5078162;28;20491;-68
2022/05/28 08:53:46;;;;;;;3.97;1.67;;;;;;;;;;5079112;28;20040;-67
2022/05/28 08:56:19;;;;;;;5.13;1.30;;;;;;;;;;5076076;28;20028;-68
2022/05/28 08:58:48;;;;;;;3.80;1.50;;;;;;;;;;5079448;28;20040;-68
2022/05/28 09:01:18;;;;;;;2.28;1.08;;;;;;;;;;5059199;28;20581;-67
2022/05/28 09:03:48;;;;;;;5.95;1.70;;;;;;;;;;5078274;28;20051;-68
2022/05/28 09:06:27;;;;;;;7.60;1.60;;;;;;;;;;5080439;28;20117;-67
2022/05/28 09:08:56;;;;;;;4.72;1.55;;;;;;;;;;5079941;28;20051;-68
2022/05/28 09:11:35;;;;;;;7.72;1.70;;;;;;;;;;5080499;28;20495;-68
2022/05/28 09:14:27;;;;;;;3.20;1.23;;;;;;;;;;5079230;28;20135;-68
2022/05/28 09:17:00;;;;;;;3.90;1.35;;;;;;;;;;5080317;28;20119;-68
2022/05/28 09:19:30;;;;;;;4.03;1.08;;;;;;;;;;5079454;28;20047;-68
2022/05/28 09:21:56;;;;;;;3.30;1.40;;;;;;;;;;5080157;28;20040;-68
2022/05/28 09:24:26;;;;;;;4.43;1.40;;;;;;;;;;5079532;28;20039;-68
2022/05/28 09:27:21;;;;;;;9.67;1.70;;;;;;;;;;5079508;28;20028;-68
2022/05/28 09:30:14;;;;;;;4.80;1.52;;;;;;;;;;5079902;28;20048;-68
2022/05/28 09:32:42;;;;;;;3.90;1.40;;;;;;;;;;5077880;28;20043;-68
2022/05/28 09:35:26;;;;;;;3.83;1.20;;;;;;;;;;5079602;28;20093;-68
2022/05/28 09:38:05;;;;;;;4.45;1.10;;;;;;;;;;5079400;28;20492;-68
2022/05/28 09:40:39;;;;;;;4.03;1.50;;;;;;;;;;5079954;28;20564;-68
2022/05/28 09:43:46;;;;;;;7.00;1.20;;;;;;;;;;5080051;28;20044;-67
2022/05/28 09:46:27;;;;;;;5.50;1.52;;;;;;;;;;5049896;28;20097;-68
2022/05/28 09:49:01;;;;;;;4.15;1.27;;;;;;;;;;5079959;28;20040;-68
2022/05/28 09:51:30;;;;;;;1.90;1.17;;;;;;;;;;5080262;28;20507;-68
2022/05/28 09:54:17;;;;;;;3.05;0.95;;;;;;;;;;5080313;28;20092;-68
2022/05/28 09:56:51;;;;;;;1.80;1.00;;;;;;;;;;5080135;28;20096;-68
2022/05/28 09:59:42;;;;;;;3.85;0.98;;;;;;;;;;5059865;28;20048;-68
2022/05/28 10:02:29;;;;;;;4.30;1.20;;;;;;;;;;5061656;28;20142;-68
2022/05/28 10:05:13;;;;;;;1.33;0.75;;;;;;;;;;5080149;28;20391;-68
2022/05/28 10:07:38;;;;;;;2.60;0.90;;;;;;;;;;5080222;28;20055;-68
2022/05/28 10:10:13;;;;;;;4.50;1.08;;;;;;;;;;5079567;28;20063;-68
2022/05/28 10:12:38;;;;;;;2.25;1.10;;;;;;;;;;5083965;28;20396;-68
2022/05/28 10:15:17;;;;;;;4.10;1.17;;;;;;;;;;5083240;28;20039;-68
2022/05/28 10:17:52;;;;;;;4.05;1.25;;;;;;;;;;5083306;28;20031;-68
2022/05/28 10:20:19;;;;;;;3.22;1.10;;;;;;;;;;5082370;28;20036;-68
2022/05/28 10:22:50;;;;;;;2.22;0.98;;;;;;;;;;5083327;28;20040;-68
2022/05/28 10:25:37;;;;;;;4.20;0.98;;;;;;;;;;5083183;28;20039;-68
2022/05/28 10:28:03;;;;;;;1.63;0.75;;;;;;;;;;5082597;28;20047;-68
2022/05/28 10:30:38;;;;;;;4.15;0.80;;;;;;;;;;5082256;28;20040;-68
2022/05/28 10:33:17;;;;;;;3.78;1.00;;;;;;;;;;5083535;28;20127;-68
2022/05/28 10:35:43;;;;;;;3.28;1.10;;;;;;;;;;5083087;28;20093;-68
2022/05/28 10:38:23;;;;;;;3.83;0.70;;;;;;;;;;5082803;28;20040;-68
2022/05/28 10:40:53;;;;;;;3.42;1.15;;;;;;;;;;5080856;28;20040;-68
2022/05/28 10:43:38;;;;;;;2.80;0.90;;;;;;;;;;5080594;28;20061;-68
2022/05/28 10:46:10;;;;;;;1.10;0.70;;;;;;;;;;5081223;28;20047;-68
2022/05/28 10:49:01;;;;;;;1.17;0.82;;;;;;;;;;5080688;28;20032;-68
2022/05/28 10:51:56;;;;;;;1.83;0.80;;;;;;;;;;5082061;28;21227;-68
2022/05/28 10:54:21;;;;;;;2.55;0.80;;;;;;;;;;5076015;28;20891;-68
2022/05/28 10:56:50;;;;;;;5.97;0.80;;;;;;;;;;5081523;28;20040;-68
2022/05/28 10:59:40;;;;;;;3.83;1.00;;;;;;;;;;5081294;28;20044;-68
2022/05/28 11:02:20;;;;;;;4.25;0.90;;;;;;;;;;5082360;28;20044;-67
2022/05/28 11:05:21;;;;;;;1.08;0.60;;;;;;;;;;5080634;28;20518;-68
2022/05/28 11:07:51;;;;;;;2.63;0.90;;;;;;;;;;5025602;28;20889;-68
2022/05/28 11:10:19;;;;;;;4.57;0.88;;;;;;;;;;5080266;28;20040;-67
2022/05/28 11:13:35;;;;;;;4.60;1.20;;;;;;;;;;5081867;28;20035;-67
2022/05/28 11:16:09;;;;;;;4.25;0.98;;;;;;;;;;5034427;28;20548;-67
2022/05/28 11:18:47;;;;;;;3.42;1.23;;;;;;;;;;5049630;28;20051;-67
2022/05/28 11:21:25;;;;;;;4.35;1.20;;;;;;;;;;5080970;28;20130;-67
2022/05/28 11:24:28;;;;;;;3.08;1.20;;;;;;;;;;5081247;28;20036;-67
2022/05/28 11:27:24;;;;;;;2.95;0.75;;;;;;;;;;5081096;28;20032;-67
2022/05/28 11:30:01;;;;;;;3.22;1.23;;;;;;;;;;5082407;28;20544;-67
2022/05/28 11:32:32;;;;;;;1.40;0.75;;;;;;;;;;5081455;28;20463;-67
2022/05/28 11:35:00;;;;;;;6.68;1.08;;;;;;;;;;5082199;28;20404;-67
2022/05/28 11:37:35;;;;;;;3.55;1.00;;;;;;;;;;5081021;28;20054;-67
2022/05/28 11:40:14;;;;;;;3.47;0.88;;;;;;;;;;5079808;28;20177;-66
2022/05/28 11:42:59;;;;;;;2.38;1.02;;;;;;;;;;5082167;28;20028;-67
2022/05/28 11:45:43;;;;;;;2.33;1.05;;;;;;;;;;5077597;28;20039;-67
2022/05/28 11:51:40;;;;;;;2.58;0.70;;;;;;;;;;5078951;28;20039;-71
2022/05/28 11:54:36;;;;;;;2.28;1.00;;;;;;;;;;5079516;28;20042;-70
2022/05/28 11:57:14;;;;;;;1.52;0.75;;;;;;;;;;5079967;28;20043;-70
2022/05/28 11:59:42;;;;;;;1.85;0.85;;;;;;;;;;5079396;28;20035;-70
2022/05/28 12:02:13;;;;;;;2.03;0.75;;;;;;;;;;5080024;28;20043;-70
2022/05/28 12:04:41;;;;;;;3.58;0.90;;;;;;;;;;5077974;28;20549;-70
2022/05/28 12:07:22;;;;;;;1.75;0.85;;;;;;;;;;5079535;28;20552;-70
2022/05/28 12:09:47;;;;;;;4.18;0.90;;;;;;;;;;5078424;28;20113;-70
2022/05/28 12:12:23;;;;;;;1.20;0.60;;;;;;;;;;5079663;28;20036;-70
2022/05/28 12:15:06;;;;;;;2.92;0.93;;;;;;;;;;5079532;28;20040;-70
2022/05/28 12:17:31;;;;;;;1.08;0.60;;;;;;;;;;5061121;28;20036;-70
2022/05/28 12:20:06;;;;;;;3.00;0.90;;;;;;;;;;5079853;28;20047;-70
2022/05/28 12:22:53;;;;;;;4.07;1.65;;;;;;;;;;5080344;28;20035;-70
2022/05/28 12:25:35;;;;;;;2.38;0.82;;;;;;;;;;5081438;28;20028;-70
2022/05/28 12:28:08;;;;;;;0.60;0.60;;;;;;;;;;5075975;28;20065;-70
2022/05/28 12:30:39;;;;;;;5.20;1.10;;;;;;;;;;5078177;28;20100;-70
2022/05/28 12:33:17;;;;;;;5.50;0.93;;;;;;;;;;5078113;28;20134;-70
2022/05/28 12:35:47;;;;;;;3.70;0.90;;;;;;;;;;5078571;28;20980;-70
2022/05/28 12:38:56;;;;;;;1.40;0.60;;;;;;;;;;5078763;28;20382;-70
2022/05/28 12:41:28;;;;;;;6.57;1.25;;;;;;;;;;4989104;28;20058;-70
2022/05/28 12:44:04;;;;;;;1.55;0.60;;;;;;;;;;5078651;28;20043;-70
2022/05/28 12:46:50;;;;;;;2.97;1.00;;;;;;;;;;5076516;28;20040;-70
2022/05/28 12:49:42;;;;;;;5.30;0.77;;;;;;;;;;5079179;28;20044;-70
2022/05/28 12:52:34;;;;;;;1.77;0.98;;;;;;;;;;5080181;28;20048;-70
2022/05/28 12:55:12;;;;;;;1.50;0.57;;;;;;;;;;5078089;28;20044;-70
2022/05/28 12:57:38;;;;;;;1.00;0.70;;;;;;;;;;5079188;28;20044;-70
2022/05/28 13:00:14;;;;;;;2.00;0.88;;;;;;;;;;5078303;28;20040;-70
2022/05/28 13:02:42;;;;;;;4.53;1.20;;;;;;;;;;5079649;28;20040;-70
2022/05/28 13:05:12;;;;;;;1.67;0.70;;;;;;;;;;5078621;28;20055;-70
2022/05/28 13:07:56;;;;;;;2.80;0.80;;;;;;;;;;5079416;28;20040;-70
2022/05/28 13:10:24;;;;;;;2.25;1.05;;;;;;;;;;5060732;28;20039;-70
2022/05/28 13:13:00;;;;;;;2.00;0.95;;;;;;;;;;5079520;28;20043;-70
2022/05/28 13:15:47;;;;;;;5.10;0.82;;;;;;;;;;5077108;28;21721;-70
2022/05/28 13:18:33;;;;;;;2.25;0.90;;;;;;;;;;5078856;28;20040;-70
2022/05/28 13:21:14;;;;;;;3.63;1.13;;;;;;;;;;5079383;28;20061;-70
2022/05/28 13:24:31;;;;;;;2.05;0.63;;;;;;;;;;5077723;28;20032;-70
2022/05/28 13:27:26;;;;;;;4.93;0.82;;;;;;;;;;5016805;28;20127;-70
2022/05/28 13:30:19;;;;;;;2.63;0.75;;;;;;;;;;5076782;28;20036;-70
2022/05/28 13:32:49;;;;;;;2.13;0.60;;;;;;;;;;5078774;28;20051;-70
2022/05/28 13:35:17;;;;;;;1.50;0.60;;;;;;;;;;5079115;28;20032;-70
2022/05/28 13:37:55;;;;;;;3.03;0.80;;;;;;;;;;5077756;28;20050;-71
2022/05/28 13:40:30;;;;;;;4.43;0.70;;;;;;;;;;5077811;28;20036;-68
2022/05/28 13:43:02;;;;;;;4.80;0.60;;;;;;;;;;5079180;28;20043;-68
2022/05/28 13:45:30;;;;;;;;;;;;;;;;;;5080485;28;20677;-68
2022/05/28 13:48:06;;;;;;;1.95;0.80;;;;;;;;;;5082193;28;20291;-70
2022/05/28 13:50:35;;;;;;;5.57;0.70;;;;;;;;;;5081747;28;20044;-70
2022/05/28 13:53:02;;;;;;;2.72;0.98;;;;;;;;;;5082674;28;20412;-70
2022/05/28 13:55:27;;;;;;;2.80;0.73;;;;;;;;;;5064768;28;20044;-70
2022/05/28 13:57:54;;;;;;;1.30;0.68;;;;;;;;;;5082785;28;20043;-70
2022/05/28 14:00:25;;;;;;;3.70;0.68;;;;;;;;;;5081144;28;20111;-70
2022/05/28 14:02:58;;;;;;;2.30;0.95;;;;;;;;;;5082318;28;20070;-70
2022/05/28 14:05:28;;;;;;;1.50;0.70;;;;;;;;;;5082838;28;20097;-70
2022/05/28 14:07:54;;;;;;;2.40;0.73;;;;;;;;;;5082571;28;20028;-70
2022/05/28 14:10:22;;;;;;;1.52;0.60;;;;;;;;;;5081649;28;20986;-70
2022/05/28 14:12:50;;;;;;;2.38;0.60;;;;;;;;;;5080569;28;20050;-70
2022/05/28 14:15:22;;;;;;;1.38;0.55;;;;;;;;;;5082592;28;20796;-71
2022/05/28 14:17:48;;;;;;;2.20;0.70;;;;;;;;;;5082205;28;20416;-70
2022/05/28 14:20:34;;;;;;;3.25;0.70;;;;;;;;;;5081895;28;20047;-70
2022/05/28 14:23:00;;;;;;;1.83;0.63;;;;;;;;;;5080758;28;20047;-70
2022/05/28 14:25:30;;;;;;;2.50;0.80;;;;;;;;;;5081861;28;20044;-70
2022/05/28 14:28:06;;;;;;;3.78;1.02;;;;;;;;;;5081010;28;20436;-70
2022/05/28 14:30:34;;;;;;;2.08;0.70;;;;;;;;;;5079509;28;20038;-70
2022/05/28 14:33:01;;;;;;;2.40;0.60;;;;;;;;;;5061306;28;20040;-70
2022/05/28 14:35:42;;;;;;;1.80;0.75;;;;;;;;;;5080194;28;20032;-70
2022/05/28 14:38:09;;;;;;;2.10;1.00;;;;;;;;;;5047824;28;20147;-70
2022/05/28 14:40:41;;;;;;;3.92;0.88;;;;;;;;;;5080006;28;20278;-70
2022/05/28 14:43:08;;;;;;;3.28;0.60;;;;;;;;;;5080519;28;20055;-71
2022/05/28 14:45:39;;;;;;;0.95;0.50;;;;;;;;;;5055980;28;20127;-71
2022/05/28 14:48:06;;;;;;;3.38;0.80;;;;;;;;;;5080156;28;20043;-71
2022/05/28 14:50:41;;;;;;;3.22;0.85;;;;;;;;;;5079936;28;21328;-70
2022/05/28 14:53:12;;;;;;;2.10;0.93;;;;;;;;;;5080887;28;20040;-70
2022/05/28 14:55:38;;;;;;;0.75;0.68;;;;;;;;;;5080100;28;20493;-70
2022/05/28 14:58:22;;;;;;;5.75;0.80;;;;;;;;;;5080695;28;20042;-71
2022/05/28 15:01:04;;;;;;;5.80;0.63;;;;;;;;;;5080775;28;20043;-70
2022/05/28 15:03:32;;;;;;;2.17;0.60;;;;;;;;;;5081505;28;20070;-70
2022/05/28 15:06:15;;;;;;;2.05;0.50;;;;;;;;;;5080463;28;20480;-70
2022/05/28 15:08:50;;;;;;;2.80;0.82;;;;;;;;;;5080193;28;20498;-70
2022/05/28 15:11:26;;;;;;;2.83;1.45;;;;;;;;;;5081520;28;20047;-70
2022/05/28 15:14:04;;;;;;;3.30;1.38;;;;;;;;;;5080374;28;20632;-70
2022/05/28 15:16:29;;;;;;;1.23;0.90;;;;;;;;;;5079349;28;21070;-70